PWSweather.com
Personal Weather Stations
Station Observations
PICKERING
North Yorkshire, PickeringGB

North YorkshirePickeringGB

Lat: 54.2494, Lon: -0.7725

Elevation: 192

Station Type: Oregon Scientific WMR100

http://www.yorkshirewalker.co.uk/weather/

High Low Average
Temperature 51.8°F11.0°C 29.5°F-1.4°C 40.6°F4.8°C
Dew Point 44.6°F7.0°C 23.0°F-5.0°C 33.9°F1.1°C
Winds 10.3 mph 16.6 kmh Calm Calm 5.0 mph SW8.0 kmh SW
Wind Gusts 17.4 mph28.0 kmh -- 8.0 mph12.9 kmh
Humidity 85% 60% 77%
Pressure 29.68 in1005.1 mb 29.15 in987.1 mb -
Precipitation 0.13 in3.3 mm - -
Hour Temp Dew Point Humidity Winds Wind Gusts Pressure Precip Precip Rate Daily Precip Total
12:00 AM 37.2°F2.9°C 33.8°F1.0°C 82% 6.0 mph S9.7 kmh S 9.6 mph15.4 kmh 29.45 in997.3 mb 0.00 in0.0 mm 0.00 in0.0 mm 0.00 in0.0 mm
12:05 AM 37.4°F3.0°C 33.8°F1.0°C 82% 5.8 mph S9.3 kmh S 10.5 mph16.9 kmh 29.45 in997.3 mb 0.00 in0.0 mm 0.00 in0.0 mm 0.00 in0.0 mm
12:10 AM 37.4°F3.0°C 33.8°F1.0°C 82% 5.2 mph S8.4 kmh S 10.5 mph16.9 kmh 29.45 in997.3 mb 0.00 in0.0 mm 0.00 in0.0 mm 0.00 in0.0 mm
12:15 AM 37.6°F3.1°C 33.8°F1.0°C 82% 5.5 mph S8.9 kmh S 8.5 mph13.7 kmh 29.45 in997.3 mb 0.00 in0.0 mm 0.00 in0.0 mm 0.00 in0.0 mm
12:20 AM 37.8°F3.2°C 33.8°F1.0°C 82% 7.3 mph S11.7 kmh S 15.9 mph25.6 kmh 29.41 in995.9 mb 0.00 in0.0 mm 0.00 in0.0 mm 0.00 in0.0 mm
12:25 AM 37.9°F3.3°C 33.8°F1.0°C 82% 6.7 mph S10.8 kmh S 15.9 mph25.6 kmh 29.41 in995.9 mb 0.00 in0.0 mm 0.00 in0.0 mm 0.00 in0.0 mm
12:30 AM 37.9°F3.3°C 33.8°F1.0°C 82% 6.7 mph S10.8 kmh S 11.0 mph17.7 kmh 29.41 in995.9 mb 0.00 in0.0 mm 0.00 in0.0 mm 0.00 in0.0 mm
12:35 AM 38.1°F3.4°C 33.8°F1.0°C 82% 7.7 mph SSW12.4 kmh SSW 11.0 mph17.7 kmh 29.41 in995.9 mb 0.00 in0.0 mm 0.00 in0.0 mm 0.00 in0.0 mm
12:40 AM 38.3°F3.5°C 33.8°F1.0°C 82% 7.2 mph S11.6 kmh S 9.6 mph15.4 kmh 29.41 in995.9 mb 0.00 in0.0 mm 0.00 in0.0 mm 0.00 in0.0 mm
12:45 AM 38.3°F3.5°C 33.8°F1.0°C 82% 7.7 mph S12.4 kmh S 12.3 mph19.8 kmh 29.41 in995.9 mb 0.00 in0.0 mm 0.00 in0.0 mm 0.00 in0.0 mm
12:50 AM 38.3°F3.5°C 33.8°F1.0°C 82% 7.3 mph S11.7 kmh S 12.3 mph19.8 kmh 29.41 in995.9 mb 0.00 in0.0 mm 0.00 in0.0 mm 0.00 in0.0 mm
12:55 AM 38.3°F3.5°C 33.8°F1.0°C 82% 5.7 mph S9.2 kmh S 9.6 mph15.4 kmh 29.41 in995.9 mb 0.00 in0.0 mm 0.00 in0.0 mm 0.00 in0.0 mm
01:00 AM 38.5°F3.6°C 33.8°F1.0°C 82% 7.1 mph S11.4 kmh S 14.3 mph23.0 kmh 29.41 in995.9 mb 0.00 in0.0 mm 0.00 in0.0 mm 0.00 in0.0 mm
01:05 AM 38.5°F3.6°C 33.8°F1.0°C 82% 8.1 mph SSW13.0 kmh SSW 14.3 mph23.0 kmh 29.39 in995.3 mb 0.00 in0.0 mm 0.00 in0.0 mm 0.00 in0.0 mm
01:10 AM 38.5°F3.6°C 33.8°F1.0°C 82% 8.1 mph SSW13.0 kmh SSW 14.3 mph23.0 kmh 29.39 in995.3 mb 0.00 in0.0 mm 0.00 in0.0 mm 0.00 in0.0 mm
01:15 AM 38.5°F3.6°C 33.8°F1.0°C 82% 8.1 mph S13.0 kmh S 12.8 mph20.6 kmh 29.39 in995.3 mb 0.00 in0.0 mm 0.00 in0.0 mm 0.00 in0.0 mm
01:20 AM 38.5°F3.6°C 33.8°F1.0°C 82% 7.3 mph S11.7 kmh S 12.8 mph20.6 kmh 29.39 in995.3 mb 0.00 in0.0 mm 0.00 in0.0 mm 0.00 in0.0 mm
01:25 AM 38.5°F3.6°C 33.8°F1.0°C 82% 7.9 mph S12.7 kmh S 17.4 mph28.0 kmh 29.39 in995.3 mb 0.00 in0.0 mm 0.00 in0.0 mm 0.00 in0.0 mm
01:30 AM 38.5°F3.6°C 33.8°F1.0°C 82% 10.0 mph S16.1 kmh S 17.4 mph28.0 kmh 29.39 in995.3 mb 0.00 in0.0 mm 0.00 in0.0 mm 0.00 in0.0 mm
01:35 AM 38.5°F3.6°C 33.8°F1.0°C 82% 7.2 mph S11.6 kmh S 12.5 mph20.1 kmh 29.39 in995.3 mb 0.00 in0.0 mm 0.00 in0.0 mm 0.00 in0.0 mm
01:40 AM 38.3°F3.5°C 33.8°F1.0°C 82% 7.3 mph S11.7 kmh S 12.8 mph20.6 kmh 29.39 in995.3 mb 0.00 in0.0 mm 0.00 in0.0 mm 0.00 in0.0 mm
01:45 AM 38.3°F3.5°C 33.8°F1.0°C 82% 8.6 mph S13.8 kmh S 12.8 mph20.6 kmh 29.39 in995.3 mb 0.00 in0.0 mm 0.00 in0.0 mm 0.00 in0.0 mm
01:50 AM 38.3°F3.5°C 33.8°F1.0°C 82% 8.5 mph S13.7 kmh S 12.8 mph20.6 kmh 29.39 in995.3 mb 0.00 in0.0 mm 0.00 in0.0 mm 0.00 in0.0 mm
01:55 AM 38.3°F3.5°C 33.8°F1.0°C 82% 7.9 mph S12.7 kmh S 12.8 mph20.6 kmh 29.39 in995.3 mb 0.00 in0.0 mm 0.00 in0.0 mm 0.00 in0.0 mm
02:00 AM 38.5°F3.6°C 33.8°F1.0°C 82% 6.9 mph S11.1 kmh S 10.5 mph16.9 kmh 29.39 in995.3 mb 0.00 in0.0 mm 0.00 in0.0 mm 0.00 in0.0 mm
02:05 AM 38.5°F3.6°C 33.8°F1.0°C 82% 6.6 mph SSW10.6 kmh SSW 10.5 mph16.9 kmh 29.36 in994.2 mb 0.00 in0.0 mm 0.00 in0.0 mm 0.00 in0.0 mm
02:10 AM 38.5°F3.6°C 33.8°F1.0°C 82% 7.3 mph S11.7 kmh S 10.3 mph16.6 kmh 29.36 in994.2 mb 0.00 in0.0 mm 0.00 in0.0 mm 0.00 in0.0 mm
02:15 AM 38.5°F3.6°C 33.8°F1.0°C 82% 6.6 mph S10.6 kmh S 10.3 mph16.6 kmh 29.36 in994.2 mb 0.00 in0.0 mm 0.00 in0.0 mm 0.00 in0.0 mm
02:20 AM 38.5°F3.6°C 33.8°F1.0°C 82% 5.9 mph S9.5 kmh S 10.3 mph16.6 kmh 29.33 in993.2 mb 0.00 in0.0 mm 0.00 in0.0 mm 0.00 in0.0 mm
02:25 AM 38.5°F3.6°C 33.8°F1.0°C 82% 6.6 mph SSW10.6 kmh SSW 10.3 mph16.6 kmh 29.33 in993.2 mb 0.00 in0.0 mm 0.00 in0.0 mm 0.00 in0.0 mm
02:30 AM 38.5°F3.6°C 33.8°F1.0°C 83% 6.0 mph S9.7 kmh S 12.8 mph20.6 kmh 29.33 in993.2 mb 0.00 in0.0 mm 0.00 in0.0 mm 0.00 in0.0 mm
02:35 AM 38.5°F3.6°C 33.8°F1.0°C 83% 6.0 mph SSW9.7 kmh SSW 12.8 mph20.6 kmh 29.36 in994.2 mb 0.00 in0.0 mm 0.00 in0.0 mm 0.00 in0.0 mm
02:40 AM 38.3°F3.5°C 33.8°F1.0°C 83% 6.4 mph SSW10.3 kmh SSW 10.3 mph16.6 kmh 29.36 in994.2 mb 0.00 in0.0 mm 0.00 in0.0 mm 0.00 in0.0 mm
02:45 AM 38.3°F3.5°C 33.8°F1.0°C 83% 5.8 mph S9.3 kmh S 8.1 mph13.0 kmh 29.36 in994.2 mb 0.00 in0.0 mm 0.00 in0.0 mm 0.00 in0.0 mm
02:50 AM 38.5°F3.6°C 33.8°F1.0°C 83% 7.0 mph SSW11.3 kmh SSW 11.4 mph18.3 kmh 29.33 in993.2 mb 0.00 in0.0 mm 0.00 in0.0 mm 0.00 in0.0 mm
02:55 AM 38.3°F3.5°C 33.8°F1.0°C 83% 7.2 mph S11.6 kmh S 11.4 mph18.3 kmh 29.33 in993.2 mb 0.00 in0.0 mm 0.00 in0.0 mm 0.00 in0.0 mm
03:00 AM 38.3°F3.5°C 33.8°F1.0°C 83% 5.0 mph S8.0 kmh S 10.3 mph16.6 kmh 29.33 in993.2 mb 0.00 in0.0 mm 0.00 in0.0 mm 0.00 in0.0 mm
03:05 AM 38.3°F3.5°C 33.8°F1.0°C 83% 3.3 mph S5.3 kmh S 5.6 mph9.0 kmh 29.33 in993.2 mb 0.00 in0.0 mm 0.00 in0.0 mm 0.00 in0.0 mm
03:10 AM 38.5°F3.6°C 33.8°F1.0°C 83% 4.1 mph S6.6 kmh S 5.8 mph9.3 kmh 29.33 in993.2 mb 0.00 in0.0 mm 0.00 in0.0 mm 0.00 in0.0 mm
03:15 AM 38.5°F3.6°C 33.8°F1.0°C 84% 5.0 mph S8.0 kmh S 8.7 mph14.0 kmh 29.33 in993.2 mb 0.00 in0.0 mm 0.00 in0.0 mm 0.00 in0.0 mm
03:20 AM 38.7°F3.7°C 33.8°F1.0°C 83% 5.7 mph S9.2 kmh S 8.7 mph14.0 kmh 29.33 in993.2 mb 0.00 in0.0 mm 0.00 in0.0 mm 0.00 in0.0 mm
03:25 AM 38.7°F3.7°C 33.8°F1.0°C 83% 5.4 mph SSW8.7 kmh SSW 8.5 mph13.7 kmh 29.33 in993.2 mb 0.00 in0.0 mm 0.00 in0.0 mm 0.00 in0.0 mm
03:30 AM 38.7°F3.7°C 33.8°F1.0°C 83% 6.4 mph S10.3 kmh S 10.7 mph17.2 kmh 29.33 in993.2 mb 0.00 in0.0 mm 0.00 in0.0 mm 0.00 in0.0 mm
03:35 AM 38.8°F3.8°C 33.8°F1.0°C 84% 6.6 mph S10.6 kmh S 10.7 mph17.2 kmh 29.27 in991.2 mb 0.00 in0.0 mm 0.00 in0.0 mm 0.00 in0.0 mm
03:40 AM 38.8°F3.8°C 33.8°F1.0°C 84% 5.6 mph S9.0 kmh S 8.7 mph14.0 kmh 29.27 in991.2 mb 0.00 in0.0 mm 0.00 in0.0 mm 0.00 in0.0 mm
03:45 AM 38.8°F3.8°C 33.8°F1.0°C 84% 5.7 mph S9.2 kmh S 8.7 mph14.0 kmh 29.27 in991.2 mb 0.00 in0.0 mm 0.00 in0.0 mm 0.00 in0.0 mm
03:50 AM 38.8°F3.8°C 33.8°F1.0°C 84% 5.2 mph S8.4 kmh S 7.6 mph12.2 kmh 29.30 in992.2 mb 0.00 in0.0 mm 0.00 in0.0 mm 0.00 in0.0 mm
03:55 AM 39.0°F3.9°C 35.6°F2.0°C 84% 6.1 mph S9.8 kmh S 11.2 mph18.0 kmh 29.30 in992.2 mb 0.00 in0.0 mm 0.00 in0.0 mm 0.00 in0.0 mm
04:00 AM 39.0°F3.9°C 35.6°F2.0°C 84% 7.5 mph S12.1 kmh S 11.2 mph18.0 kmh 29.30 in992.2 mb 0.00 in0.0 mm 0.00 in0.0 mm 0.00 in0.0 mm
04:05 AM 39.0°F3.9°C 35.6°F2.0°C 84% 6.1 mph S9.8 kmh S 9.4 mph15.1 kmh 29.30 in992.2 mb 0.00 in0.0 mm 0.00 in0.0 mm 0.00 in0.0 mm
04:10 AM 39.2°F4.0°C 35.6°F2.0°C 84% 5.3 mph S8.5 kmh S 8.1 mph13.0 kmh 29.30 in992.2 mb 0.00 in0.0 mm 0.00 in0.0 mm 0.00 in0.0 mm
04:15 AM 39.2°F4.0°C 35.6°F2.0°C 84% 5.3 mph S8.5 kmh S 8.1 mph13.0 kmh 29.30 in992.2 mb 0.00 in0.0 mm 0.00 in0.0 mm 0.00 in0.0 mm
04:20 AM 39.2°F4.0°C 35.6°F2.0°C 84% 5.5 mph S8.9 kmh S 9.8 mph15.8 kmh 29.30 in992.2 mb 0.00 in0.0 mm 0.00 in0.0 mm 0.00 in0.0 mm
04:25 AM 39.2°F4.0°C 35.6°F2.0°C 84% 7.1 mph S11.4 kmh S 14.8 mph23.8 kmh 29.30 in992.2 mb 0.00 in0.0 mm 0.00 in0.0 mm 0.00 in0.0 mm
04:30 AM 39.4°F4.1°C 35.6°F2.0°C 84% 8.8 mph S14.2 kmh S 14.8 mph23.8 kmh 29.30 in992.2 mb 0.00 in0.0 mm 0.00 in0.0 mm 0.00 in0.0 mm
04:35 AM 39.4°F4.1°C 35.6°F2.0°C 84% 8.8 mph SSW14.2 kmh SSW 14.8 mph23.8 kmh 29.27 in991.2 mb 0.00 in0.0 mm 0.00 in0.0 mm 0.00 in0.0 mm
04:40 AM 39.6°F4.2°C 35.6°F2.0°C 84% 6.2 mph S10.0 kmh S 13.6 mph21.9 kmh 29.27 in991.2 mb 0.00 in0.0 mm 0.00 in0.0 mm 0.00 in0.0 mm
04:45 AM 39.6°F4.2°C 35.6°F2.0°C 84% 5.6 mph S9.0 kmh S 12.1 mph19.5 kmh 29.27 in991.2 mb 0.00 in0.0 mm 0.00 in0.0 mm 0.00 in0.0 mm
04:50 AM 39.6°F4.2°C 35.6°F2.0°C 84% 5.0 mph S8.0 kmh S 8.1 mph13.0 kmh 29.27 in991.2 mb 0.00 in0.0 mm 0.00 in0.0 mm 0.00 in0.0 mm
04:55 AM 39.6°F4.2°C 35.6°F2.0°C 84% 4.2 mph S6.8 kmh S 7.8 mph12.6 kmh 29.27 in991.2 mb 0.00 in0.0 mm 0.00 in0.0 mm 0.00 in0.0 mm
05:00 AM 39.7°F4.3°C 35.6°F2.0°C 84% 5.5 mph S8.9 kmh S 12.1 mph19.5 kmh 29.27 in991.2 mb 0.00 in0.0 mm 0.00 in0.0 mm 0.00 in0.0 mm
05:05 AM 39.7°F4.3°C 35.6°F2.0°C 85% 6.4 mph S10.3 kmh S 12.1 mph19.5 kmh 29.27 in991.2 mb 0.00 in0.0 mm 0.00 in0.0 mm 0.00 in0.0 mm
05:10 AM 39.7°F4.3°C 35.6°F2.0°C 85% 5.3 mph S8.5 kmh S 8.5 mph13.7 kmh 29.27 in991.2 mb 0.00 in0.0 mm 0.00 in0.0 mm 0.00 in0.0 mm
05:15 AM 39.7°F4.3°C 35.6°F2.0°C 85% 5.1 mph S8.2 kmh S 6.9 mph11.1 kmh 29.27 in991.2 mb 0.00 in0.0 mm 0.00 in0.0 mm 0.00 in0.0 mm
05:20 AM 39.9°F4.4°C 35.6°F2.0°C 85% 4.3 mph S6.9 kmh S 6.3 mph10.1 kmh 29.27 in991.2 mb 0.00 in0.0 mm 0.00 in0.0 mm 0.00 in0.0 mm
05:25 AM 39.9°F4.4°C 35.6°F2.0°C 85% 4.2 mph S6.8 kmh S 8.1 mph13.0 kmh 29.27 in991.2 mb 0.00 in0.0 mm 0.00 in0.0 mm 0.00 in0.0 mm
05:30 AM 39.9°F4.4°C 35.6°F2.0°C 85% 4.9 mph SSW7.9 kmh SSW 8.1 mph13.0 kmh 29.27 in991.2 mb 0.00 in0.0 mm 0.00 in0.0 mm 0.00 in0.0 mm
05:35 AM 39.9°F4.4°C 35.6°F2.0°C 85% 4.9 mph S7.9 kmh S 7.8 mph12.6 kmh 29.24 in990.2 mb 0.00 in0.0 mm 0.00 in0.0 mm 0.00 in0.0 mm
05:40 AM 39.9°F4.4°C 35.6°F2.0°C 85% 5.1 mph S8.2 kmh S 9.8 mph15.8 kmh 29.24 in990.2 mb 0.00 in0.0 mm 0.00 in0.0 mm 0.00 in0.0 mm
05:45 AM 40.1°F4.5°C 37.4°F3.0°C 85% 5.6 mph SSW9.0 kmh SSW 9.8 mph15.8 kmh 29.24 in990.2 mb 0.00 in0.0 mm 0.00 in0.0 mm 0.00 in0.0 mm
05:50 AM 40.1°F4.5°C 37.4°F3.0°C 85% 5.1 mph SSW8.2 kmh SSW 9.8 mph15.8 kmh 29.24 in990.2 mb 0.00 in0.0 mm 0.00 in0.0 mm 0.00 in0.0 mm
05:55 AM 40.1°F4.5°C 37.4°F3.0°C 85% 4.7 mph SSW7.6 kmh SSW 8.5 mph13.7 kmh 29.24 in990.2 mb 0.00 in0.0 mm 0.00 in0.0 mm 0.00 in0.0 mm
06:00 AM 40.1°F4.5°C 37.4°F3.0°C 85% 5.2 mph S8.4 kmh S 8.5 mph13.7 kmh 29.24 in990.2 mb 0.00 in0.0 mm 0.00 in0.0 mm 0.00 in0.0 mm
06:05 AM 40.1°F4.5°C 37.4°F3.0°C 85% 5.7 mph S9.2 kmh S 9.8 mph15.8 kmh 29.24 in990.2 mb 0.00 in0.0 mm 0.00 in0.0 mm 0.00 in0.0 mm
06:10 AM 40.1°F4.5°C 37.4°F3.0°C 85% 4.9 mph S7.9 kmh S 9.8 mph15.8 kmh 29.24 in990.2 mb 0.00 in0.0 mm 0.00 in0.0 mm 0.00 in0.0 mm
06:15 AM 40.1°F4.5°C 37.4°F3.0°C 85% 5.0 mph S8.0 kmh S 11.0 mph17.7 kmh 29.24 in990.2 mb 0.00 in0.0 mm 0.00 in0.0 mm 0.00 in0.0 mm
06:20 AM 40.3°F4.6°C 37.4°F3.0°C 85% 4.7 mph S7.6 kmh S 11.0 mph17.7 kmh 29.24 in990.2 mb 0.00 in0.0 mm 0.00 in0.0 mm 0.00 in0.0 mm
06:25 AM 40.3°F4.6°C 37.4°F3.0°C 85% 3.9 mph S6.3 kmh S 8.5 mph13.7 kmh 29.24 in990.2 mb 0.00 in0.0 mm 0.00 in0.0 mm 0.00 in0.0 mm
06:30 AM 40.3°F4.6°C 37.4°F3.0°C 85% 4.6 mph SSW7.4 kmh SSW 10.7 mph17.2 kmh 29.24 in990.2 mb 0.00 in0.0 mm 0.00 in0.0 mm 0.00 in0.0 mm
06:35 AM 40.3°F4.6°C 37.4°F3.0°C 85% 5.4 mph SSW8.7 kmh SSW 10.7 mph17.2 kmh 29.24 in990.2 mb 0.00 in0.0 mm 0.00 in0.0 mm 0.00 in0.0 mm
06:40 AM 40.3°F4.6°C 37.4°F3.0°C 85% 5.8 mph SSW9.3 kmh SSW 8.5 mph13.7 kmh 29.24 in990.2 mb 0.00 in0.0 mm 0.00 in0.0 mm 0.00 in0.0 mm
06:45 AM 40.3°F4.6°C 37.4°F3.0°C 85% 6.5 mph SSW10.5 kmh SSW 10.5 mph16.9 kmh 29.24 in990.2 mb 0.00 in0.0 mm 0.00 in0.0 mm 0.00 in0.0 mm
06:50 AM 40.3°F4.6°C 37.4°F3.0°C 85% 6.0 mph SSW9.7 kmh SSW 10.5 mph16.9 kmh 29.24 in990.2 mb 0.00 in0.0 mm 0.00 in0.0 mm 0.00 in0.0 mm
06:55 AM 40.3°F4.6°C 37.4°F3.0°C 85% 5.8 mph SSW9.3 kmh SSW 10.5 mph16.9 kmh 29.24 in990.2 mb 0.00 in0.0 mm 0.00 in0.0 mm 0.00 in0.0 mm
07:00 AM 40.3°F4.6°C 37.4°F3.0°C 85% 5.5 mph SSW8.9 kmh SSW 10.5 mph16.9 kmh 29.24 in990.2 mb 0.00 in0.0 mm 0.00 in0.0 mm 0.00 in0.0 mm
07:05 AM 40.5°F4.7°C 37.4°F3.0°C 85% 6.1 mph SSW9.8 kmh SSW 12.3 mph19.8 kmh 29.21 in989.2 mb 0.00 in0.0 mm 0.00 in0.0 mm 0.00 in0.0 mm
07:10 AM 40.3°F4.6°C 37.4°F3.0°C 85% 5.8 mph SSW9.3 kmh SSW 12.3 mph19.8 kmh 29.21 in989.2 mb 0.00 in0.0 mm 0.00 in0.0 mm 0.00 in0.0 mm
07:15 AM 40.5°F4.7°C 37.4°F3.0°C 85% 4.8 mph SSW7.7 kmh SSW 9.8 mph15.8 kmh 29.21 in989.2 mb 0.00 in0.0 mm 0.00 in0.0 mm 0.00 in0.0 mm
07:20 AM 40.5°F4.7°C 37.4°F3.0°C 85% 4.8 mph SSW7.7 kmh SSW 10.7 mph17.2 kmh 29.21 in989.2 mb 0.00 in0.0 mm 0.00 in0.0 mm 0.00 in0.0 mm
07:25 AM 40.5°F4.7°C 37.4°F3.0°C 85% 4.7 mph SSW7.6 kmh SSW 10.7 mph17.2 kmh 29.21 in989.2 mb 0.00 in0.0 mm 0.00 in0.0 mm 0.00 in0.0 mm
07:30 AM 40.5°F4.7°C 37.4°F3.0°C 85% 3.9 mph SW6.3 kmh SW 6.7 mph10.8 kmh 29.21 in989.2 mb 0.00 in0.0 mm 0.00 in0.0 mm 0.00 in0.0 mm
07:35 AM 40.5°F4.7°C 37.4°F3.0°C 85% 4.8 mph SW7.7 kmh SW 10.5 mph16.9 kmh 29.15 in987.1 mb 0.00 in0.0 mm 0.00 in0.0 mm 0.00 in0.0 mm
07:40 AM 40.6°F4.8°C 37.4°F3.0°C 85% 5.4 mph SSW8.7 kmh SSW 10.5 mph16.9 kmh 29.15 in987.1 mb 0.00 in0.0 mm 0.00 in0.0 mm 0.00 in0.0 mm
07:45 AM 40.8°F4.9°C 37.4°F3.0°C 85% 7.1 mph SSW11.4 kmh SSW 15.4 mph24.8 kmh 29.15 in987.1 mb 0.00 in0.0 mm 0.00 in0.0 mm 0.00 in0.0 mm
07:50 AM 41.0°F5.0°C 37.4°F3.0°C 85% 7.7 mph S12.4 kmh S 15.4 mph24.8 kmh 29.21 in989.2 mb 0.00 in0.0 mm 0.00 in0.0 mm 0.00 in0.0 mm
07:55 AM 41.0°F5.0°C 37.4°F3.0°C 85% 5.5 mph SSW8.9 kmh SSW 8.1 mph13.0 kmh 29.21 in989.2 mb 0.00 in0.0 mm 0.00 in0.0 mm 0.00 in0.0 mm
08:00 AM 41.0°F5.0°C 37.4°F3.0°C 85% 4.6 mph SSW7.4 kmh SSW 6.3 mph10.1 kmh 29.21 in989.2 mb 0.00 in0.0 mm 0.00 in0.0 mm 0.00 in0.0 mm
08:05 AM 41.0°F5.0°C 37.4°F3.0°C 85% 3.7 mph SW6.0 kmh SW 6.3 mph10.1 kmh 29.21 in989.2 mb 0.00 in0.0 mm 0.00 in0.0 mm 0.00 in0.0 mm
08:10 AM 41.2°F5.1°C 37.4°F3.0°C 85% 3.9 mph SW6.3 kmh SW 6.5 mph10.5 kmh 29.21 in989.2 mb 0.00 in0.0 mm 0.00 in0.0 mm 0.00 in0.0 mm
08:15 AM 41.2°F5.1°C 37.4°F3.0°C 85% 3.2 mph SSW5.1 kmh SSW 6.5 mph10.5 kmh 29.21 in989.2 mb 0.00 in0.0 mm 0.00 in0.0 mm 0.00 in0.0 mm
08:20 AM 41.2°F5.1°C 37.4°F3.0°C 85% 3.0 mph S4.8 kmh S 6.5 mph10.5 kmh 29.21 in989.2 mb 0.00 in0.0 mm 0.00 in0.0 mm 0.00 in0.0 mm
08:25 AM 41.2°F5.1°C 37.4°F3.0°C 85% 2.0 mph S3.2 kmh S 3.4 mph5.5 kmh 29.21 in989.2 mb 0.00 in0.0 mm 0.00 in0.0 mm 0.00 in0.0 mm
08:30 AM 41.2°F5.1°C 37.4°F3.0°C 85% 1.5 mph SSW2.4 kmh SSW 3.4 mph5.5 kmh 29.21 in989.2 mb 0.00 in0.0 mm 0.00 in0.0 mm 0.00 in0.0 mm
08:35 AM 41.2°F5.1°C 37.4°F3.0°C 85% 2.2 mph SSW3.5 kmh SSW 6.3 mph10.1 kmh 29.21 in989.2 mb 0.00 in0.0 mm 0.00 in0.0 mm 0.00 in0.0 mm
08:40 AM 41.2°F5.1°C 37.4°F3.0°C 85% 2.5 mph SSW4.0 kmh SSW 8.5 mph13.7 kmh 29.21 in989.2 mb 0.00 in0.0 mm 0.00 in0.0 mm 0.00 in0.0 mm
08:45 AM 41.4°F5.2°C 37.4°F3.0°C 85% 3.2 mph SW5.1 kmh SW 8.5 mph13.7 kmh 29.21 in989.2 mb 0.00 in0.0 mm 0.00 in0.0 mm 0.00 in0.0 mm
08:50 AM 41.4°F5.2°C 37.4°F3.0°C 85% 5.1 mph SSW8.2 kmh SSW 7.2 mph11.6 kmh 29.24 in990.2 mb 0.00 in0.0 mm 0.00 in0.0 mm 0.00 in0.0 mm
08:55 AM 41.4°F5.2°C 37.4°F3.0°C 85% 5.7 mph SSW9.2 kmh SSW 8.7 mph14.0 kmh 29.24 in990.2 mb 0.00 in0.0 mm 0.00 in0.0 mm 0.00 in0.0 mm
09:00 AM 41.5°F5.3°C 37.4°F3.0°C 85% 6.8 mph SSW10.9 kmh SSW 12.8 mph20.6 kmh 29.24 in990.2 mb 0.00 in0.0 mm 0.00 in0.0 mm 0.00 in0.0 mm
09:05 AM 41.7°F5.4°C 37.4°F3.0°C 85% 6.1 mph SSW9.8 kmh SSW 12.8 mph20.6 kmh 29.27 in991.2 mb 0.00 in0.0 mm 0.00 in0.0 mm 0.00 in0.0 mm
09:10 AM 41.9°F5.5°C 39.2°F4.0°C 85% 4.8 mph SW7.7 kmh SW 6.5 mph10.5 kmh 29.27 in991.2 mb 0.00 in0.0 mm 0.00 in0.0 mm 0.00 in0.0 mm
09:15 AM 42.1°F5.6°C 39.2°F4.0°C 85% 4.5 mph SSW7.2 kmh SSW 6.3 mph10.1 kmh 29.27 in991.2 mb 0.00 in0.0 mm 0.00 in0.0 mm 0.00 in0.0 mm
09:20 AM 42.3°F5.7°C 39.2°F4.0°C 85% 4.4 mph S7.1 kmh S 6.3 mph10.1 kmh 29.27 in991.2 mb 0.00 in0.0 mm 0.00 in0.0 mm 0.00 in0.0 mm
09:25 AM 42.3°F5.7°C 39.2°F4.0°C 85% 4.7 mph SSW7.6 kmh SSW 8.1 mph13.0 kmh 29.27 in991.2 mb 0.13 in3.3 mm 1.56 in39.6 mm 0.13 in3.3 mm
09:30 AM 42.8°F6.0°C 39.2°F4.0°C 85% 5.4 mph SSW8.7 kmh SSW 8.7 mph14.0 kmh 29.27 in991.2 mb 0.13 in3.3 mm 0.00 in0.0 mm 0.13 in3.3 mm
09:35 AM 42.8°F6.0°C 39.2°F4.0°C 85% 6.0 mph SSW9.7 kmh SSW 12.5 mph20.1 kmh 29.30 in992.2 mb 0.13 in3.3 mm 0.00 in0.0 mm 0.13 in3.3 mm
09:40 AM 43.0°F6.1°C 39.2°F4.0°C 85% 6.5 mph SSW10.5 kmh SSW 12.5 mph20.1 kmh 29.30 in992.2 mb 0.13 in3.3 mm 0.00 in0.0 mm 0.13 in3.3 mm
09:45 AM 42.8°F6.0°C 39.2°F4.0°C 85% 6.6 mph S10.6 kmh S 10.3 mph16.6 kmh 29.30 in992.2 mb 0.13 in3.3 mm 0.00 in0.0 mm 0.13 in3.3 mm
09:50 AM 43.0°F6.1°C 39.2°F4.0°C 84% 6.9 mph SSW11.1 kmh SSW 10.3 mph16.6 kmh 29.27 in991.2 mb 0.13 in3.3 mm 0.00 in0.0 mm 0.13 in3.3 mm
09:55 AM 43.3°F6.3°C 39.2°F4.0°C 84% 7.1 mph SSW11.4 kmh SSW 10.5 mph16.9 kmh 29.27 in991.2 mb 0.13 in3.3 mm 0.00 in0.0 mm 0.13 in3.3 mm
10:00 AM 43.5°F6.4°C 39.2°F4.0°C 84% 6.0 mph SSW9.7 kmh SSW 10.5 mph16.9 kmh 29.27 in991.2 mb 0.13 in3.3 mm 0.00 in0.0 mm 0.13 in3.3 mm
10:05 AM 43.3°F6.3°C 39.2°F4.0°C 84% 5.6 mph SSW9.0 kmh SSW 9.6 mph15.4 kmh 29.27 in991.2 mb 0.13 in3.3 mm 0.00 in0.0 mm 0.13 in3.3 mm
10:10 AM 43.5°F6.4°C 39.2°F4.0°C 84% 6.2 mph SSW10.0 kmh SSW 9.6 mph15.4 kmh 29.27 in991.2 mb 0.13 in3.3 mm 0.00 in0.0 mm 0.13 in3.3 mm
10:15 AM 43.7°F6.5°C 39.2°F4.0°C 84% 6.0 mph SSW9.7 kmh SSW 9.6 mph15.4 kmh 29.27 in991.2 mb 0.13 in3.3 mm 0.00 in0.0 mm 0.13 in3.3 mm
10:20 AM 43.7°F6.5°C 39.2°F4.0°C 84% 5.0 mph SSW8.0 kmh SSW 7.8 mph12.6 kmh 29.27 in991.2 mb 0.13 in3.3 mm 0.00 in0.0 mm 0.13 in3.3 mm
10:25 AM 43.7°F6.5°C 39.2°F4.0°C 84% 5.0 mph SSW8.0 kmh SSW 8.7 mph14.0 kmh 29.27 in991.2 mb 0.00 in0.0 mm 0.00 in0.0 mm 0.13 in3.3 mm
10:30 AM 43.9°F6.6°C 39.2°F4.0°C 84% 4.7 mph SSW7.6 kmh SSW 8.7 mph14.0 kmh 29.27 in991.2 mb 0.00 in0.0 mm 0.00 in0.0 mm 0.13 in3.3 mm
10:35 AM 44.1°F6.7°C 39.2°F4.0°C 84% 4.3 mph SW6.9 kmh SW 8.5 mph13.7 kmh 29.33 in993.2 mb 0.00 in0.0 mm 0.00 in0.0 mm 0.13 in3.3 mm
10:40 AM 44.6°F7.0°C 41.0°F5.0°C 84% 4.1 mph SW6.6 kmh SW 8.5 mph13.7 kmh 29.33 in993.2 mb 0.00 in0.0 mm 0.00 in0.0 mm 0.13 in3.3 mm
10:45 AM 45.1°F7.3°C 41.0°F5.0°C 84% 3.4 mph SW5.5 kmh SW 6.0 mph9.7 kmh 29.33 in993.2 mb 0.00 in0.0 mm 0.00 in0.0 mm 0.13 in3.3 mm
10:50 AM 45.5°F7.5°C 41.0°F5.0°C 84% 3.3 mph SW5.3 kmh SW 6.0 mph9.7 kmh 29.33 in993.2 mb 0.00 in0.0 mm 0.00 in0.0 mm 0.13 in3.3 mm
10:55 AM 45.7°F7.6°C 41.0°F5.0°C 84% 4.4 mph SW7.1 kmh SW 9.8 mph15.8 kmh 29.33 in993.2 mb 0.00 in0.0 mm 0.00 in0.0 mm 0.13 in3.3 mm
11:00 AM 46.0°F7.8°C 41.0°F5.0°C 84% 6.4 mph WSW10.3 kmh WSW 9.8 mph15.8 kmh 29.33 in993.2 mb 0.00 in0.0 mm 0.00 in0.0 mm 0.13 in3.3 mm
11:05 AM 46.0°F7.8°C 41.0°F5.0°C 84% 5.1 mph W8.2 kmh W 8.7 mph14.0 kmh 29.36 in994.2 mb 0.00 in0.0 mm 0.00 in0.0 mm 0.13 in3.3 mm
11:10 AM 46.2°F7.9°C 42.8°F6.0°C 84% 5.4 mph SW8.7 kmh SW 10.7 mph17.2 kmh 29.36 in994.2 mb 0.00 in0.0 mm 0.00 in0.0 mm 0.13 in3.3 mm
11:15 AM 46.4°F8.0°C 42.8°F6.0°C 83% 6.8 mph SW10.9 kmh SW 10.7 mph17.2 kmh 29.36 in994.2 mb 0.00 in0.0 mm 0.00 in0.0 mm 0.13 in3.3 mm
11:20 AM 46.2°F7.9°C 41.0°F5.0°C 83% 6.7 mph WSW10.8 kmh WSW 10.3 mph16.6 kmh 29.36 in994.2 mb 0.00 in0.0 mm 0.00 in0.0 mm 0.13 in3.3 mm
11:25 AM 47.1°F8.4°C 42.8°F6.0°C 82% 6.3 mph WSW10.1 kmh WSW 10.3 mph16.6 kmh 29.36 in994.2 mb 0.00 in0.0 mm 0.00 in0.0 mm 0.13 in3.3 mm
11:30 AM 48.7°F9.3°C 42.8°F6.0°C 81% 5.6 mph WSW9.0 kmh WSW 10.3 mph16.6 kmh 29.36 in994.2 mb 0.00 in0.0 mm 0.00 in0.0 mm 0.13 in3.3 mm
11:35 AM 49.3°F9.6°C 44.6°F7.0°C 80% 5.4 mph W8.7 kmh W 8.7 mph14.0 kmh 29.36 in994.2 mb 0.00 in0.0 mm 0.00 in0.0 mm 0.13 in3.3 mm
11:40 AM 48.2°F9.0°C 42.8°F6.0°C 79% 6.7 mph W10.8 kmh W 10.5 mph16.9 kmh 29.36 in994.2 mb 0.00 in0.0 mm 0.00 in0.0 mm 0.13 in3.3 mm
11:45 AM 49.3°F9.6°C 42.8°F6.0°C 78% 7.5 mph W12.1 kmh W 10.5 mph16.9 kmh 29.36 in994.2 mb 0.00 in0.0 mm 0.00 in0.0 mm 0.13 in3.3 mm
11:50 AM 47.7°F8.7°C 41.0°F5.0°C 77% 8.0 mph W12.9 kmh W 15.2 mph24.5 kmh 29.39 in995.3 mb 0.00 in0.0 mm 0.00 in0.0 mm 0.13 in3.3 mm
11:55 AM 46.6°F8.1°C 41.0°F5.0°C 77% 8.9 mph W14.3 kmh W 15.2 mph24.5 kmh 29.39 in995.3 mb 0.00 in0.0 mm 0.00 in0.0 mm 0.13 in3.3 mm
12:00 PM 48.2°F9.0°C 41.0°F5.0°C 76% 7.0 mph WNW11.3 kmh WNW 12.8 mph20.6 kmh 29.39 in995.3 mb 0.00 in0.0 mm 0.00 in0.0 mm 0.13 in3.3 mm
12:05 PM 49.5°F9.7°C 42.8°F6.0°C 75% 5.1 mph NW8.2 kmh NW 10.3 mph16.6 kmh 29.39 in995.3 mb 0.00 in0.0 mm 0.00 in0.0 mm 0.13 in3.3 mm
12:10 PM 49.3°F9.6°C 42.8°F6.0°C 74% 6.3 mph W10.1 kmh W 13.0 mph20.9 kmh 29.39 in995.3 mb 0.00 in0.0 mm 0.00 in0.0 mm 0.13 in3.3 mm
12:15 PM 50.2°F10.1°C 42.8°F6.0°C 72% 7.0 mph W11.3 kmh W 13.0 mph20.9 kmh 29.39 in995.3 mb 0.00 in0.0 mm 0.00 in0.0 mm 0.13 in3.3 mm
12:20 PM 50.7°F10.4°C 42.8°F6.0°C 71% 6.3 mph WNW10.1 kmh WNW 9.2 mph14.8 kmh 29.39 in995.3 mb 0.00 in0.0 mm 0.00 in0.0 mm 0.13 in3.3 mm
12:25 PM 51.3°F10.7°C 41.0°F5.0°C 69% 6.9 mph W11.1 kmh W 9.2 mph14.8 kmh 29.39 in995.3 mb 0.00 in0.0 mm 0.00 in0.0 mm 0.13 in3.3 mm
12:30 PM 51.8°F11.0°C 42.8°F6.0°C 69% 7.1 mph W11.4 kmh W 10.3 mph16.6 kmh 29.39 in995.3 mb 0.00 in0.0 mm 0.00 in0.0 mm 0.13 in3.3 mm
12:35 PM 51.4°F10.8°C 41.0°F5.0°C 66% 7.5 mph WSW12.1 kmh WSW 10.5 mph16.9 kmh 29.41 in995.9 mb 0.00 in0.0 mm 0.00 in0.0 mm 0.13 in3.3 mm
12:40 PM 51.3°F10.7°C 39.2°F4.0°C 64% 9.1 mph WSW14.6 kmh WSW 14.1 mph22.7 kmh 29.41 in995.9 mb 0.00 in0.0 mm 0.00 in0.0 mm 0.13 in3.3 mm
12:45 PM 51.4°F10.8°C 39.2°F4.0°C 63% 8.6 mph W13.8 kmh W 14.1 mph22.7 kmh 29.41 in995.9 mb 0.00 in0.0 mm 0.00 in0.0 mm 0.13 in3.3 mm
12:50 PM 51.4°F10.8°C 39.2°F4.0°C 64% 8.3 mph WNW13.4 kmh WNW 17.2 mph27.7 kmh 29.41 in995.9 mb 0.00 in0.0 mm 0.00 in0.0 mm 0.13 in3.3 mm
12:55 PM 51.4°F10.8°C 39.2°F4.0°C 63% 9.3 mph W15.0 kmh W 17.2 mph27.7 kmh 29.41 in995.9 mb 0.00 in0.0 mm 0.00 in0.0 mm 0.13 in3.3 mm
01:00 PM 51.3°F10.7°C 39.2°F4.0°C 62% 10.1 mph WSW16.3 kmh WSW 17.2 mph27.7 kmh 29.41 in995.9 mb 0.00 in0.0 mm 0.00 in0.0 mm 0.13 in3.3 mm
01:05 PM 51.4°F10.8°C 37.4°F3.0°C 61% 10.3 mph WSW16.6 kmh WSW 15.2 mph24.5 kmh 29.41 in995.9 mb 0.00 in0.0 mm 0.00 in0.0 mm 0.13 in3.3 mm
01:10 PM 50.9°F10.5°C 39.2°F4.0°C 62% 10.2 mph W16.4 kmh W 15.2 mph24.5 kmh 29.41 in995.9 mb 0.00 in0.0 mm 0.00 in0.0 mm 0.13 in3.3 mm
01:15 PM 50.7°F10.4°C 37.4°F3.0°C 61% 8.9 mph W14.3 kmh W 14.3 mph23.0 kmh 29.41 in995.9 mb 0.00 in0.0 mm 0.00 in0.0 mm 0.13 in3.3 mm
01:20 PM 50.5°F10.3°C 37.4°F3.0°C 61% 8.8 mph W14.2 kmh W 12.5 mph20.1 kmh 29.45 in997.3 mb 0.00 in0.0 mm 0.00 in0.0 mm 0.13 in3.3 mm
01:25 PM 50.4°F10.2°C 37.4°F3.0°C 61% 8.6 mph W13.8 kmh W 12.5 mph20.1 kmh 29.45 in997.3 mb 0.00 in0.0 mm 0.00 in0.0 mm 0.13 in3.3 mm
01:30 PM 50.2°F10.1°C 37.4°F3.0°C 61% 7.1 mph W11.4 kmh W 11.4 mph18.3 kmh 29.45 in997.3 mb 0.00 in0.0 mm 0.00 in0.0 mm 0.13 in3.3 mm
01:35 PM 49.8°F9.9°C 37.4°F3.0°C 61% 6.8 mph WNW10.9 kmh WNW 12.1 mph19.5 kmh 29.45 in997.3 mb 0.00 in0.0 mm 0.00 in0.0 mm 0.13 in3.3 mm
01:40 PM 49.5°F9.7°C 37.4°F3.0°C 61% 8.2 mph W13.2 kmh W 12.8 mph20.6 kmh 29.45 in997.3 mb 0.00 in0.0 mm 0.00 in0.0 mm 0.13 in3.3 mm
01:45 PM 49.1°F9.5°C 37.4°F3.0°C 61% 7.2 mph W11.6 kmh W 12.8 mph20.6 kmh 29.45 in997.3 mb 0.00 in0.0 mm 0.00 in0.0 mm 0.13 in3.3 mm
01:50 PM 48.9°F9.4°C 35.6°F2.0°C 60% 7.1 mph W11.4 kmh W 10.1 mph16.3 kmh 29.45 in997.3 mb 0.00 in0.0 mm 0.00 in0.0 mm 0.13 in3.3 mm
01:55 PM 48.9°F9.4°C 35.6°F2.0°C 61% 7.2 mph W11.6 kmh W 9.6 mph15.4 kmh 29.45 in997.3 mb 0.00 in0.0 mm 0.00 in0.0 mm 0.13 in3.3 mm
02:00 PM 48.6°F9.2°C 35.6°F2.0°C 61% 6.6 mph W10.6 kmh W 8.7 mph14.0 kmh 29.45 in997.3 mb 0.00 in0.0 mm 0.00 in0.0 mm 0.13 in3.3 mm
02:05 PM 48.2°F9.0°C 35.6°F2.0°C 62% 5.2 mph W8.4 kmh W 8.7 mph14.0 kmh 29.45 in997.3 mb 0.00 in0.0 mm 0.00 in0.0 mm 0.13 in3.3 mm
02:10 PM 48.2°F9.0°C 35.6°F2.0°C 61% 6.2 mph W10.0 kmh W 10.7 mph17.2 kmh 29.45 in997.3 mb 0.00 in0.0 mm 0.00 in0.0 mm 0.13 in3.3 mm
02:15 PM 48.2°F9.0°C 35.6°F2.0°C 61% 7.6 mph W12.2 kmh W 10.7 mph17.2 kmh 29.45 in997.3 mb 0.00 in0.0 mm 0.00 in0.0 mm 0.13 in3.3 mm
02:20 PM 48.2°F9.0°C 35.6°F2.0°C 62% 6.2 mph W10.0 kmh W 8.9 mph14.3 kmh 29.45 in997.3 mb 0.00 in0.0 mm 0.00 in0.0 mm 0.13 in3.3 mm
02:25 PM 48.0°F8.9°C 35.6°F2.0°C 62% 6.3 mph WSW10.1 kmh WSW 10.3 mph16.6 kmh 29.45 in997.3 mb 0.00 in0.0 mm 0.00 in0.0 mm 0.13 in3.3 mm
02:30 PM 47.8°F8.8°C 35.6°F2.0°C 61% 8.1 mph W13.0 kmh W 13.2 mph21.2 kmh 29.45 in997.3 mb 0.00 in0.0 mm 0.00 in0.0 mm 0.13 in3.3 mm
02:35 PM 47.7°F8.7°C 35.6°F2.0°C 61% 8.8 mph WSW14.2 kmh WSW 13.2 mph21.2 kmh 29.45 in997.3 mb 0.00 in0.0 mm 0.00 in0.0 mm 0.13 in3.3 mm
02:40 PM 47.5°F8.6°C 35.6°F2.0°C 61% 7.5 mph WSW12.1 kmh WSW 12.3 mph19.8 kmh 29.45 in997.3 mb 0.00 in0.0 mm 0.00 in0.0 mm 0.13 in3.3 mm
02:45 PM 47.7°F8.7°C 35.6°F2.0°C 61% 5.5 mph WSW8.9 kmh WSW 7.4 mph11.9 kmh 29.45 in997.3 mb 0.00 in0.0 mm 0.00 in0.0 mm 0.13 in3.3 mm
02:50 PM 47.5°F8.6°C 35.6°F2.0°C 61% 5.2 mph WSW8.4 kmh WSW 10.3 mph16.6 kmh 29.47 in998.0 mb 0.00 in0.0 mm 0.00 in0.0 mm 0.13 in3.3 mm
02:55 PM 47.5°F8.6°C 35.6°F2.0°C 62% 6.1 mph W9.8 kmh W 10.3 mph16.6 kmh 29.47 in998.0 mb 0.00 in0.0 mm 0.00 in0.0 mm 0.13 in3.3 mm
03:00 PM 47.3°F8.5°C 35.6°F2.0°C 61% 6.6 mph WNW10.6 kmh WNW 9.6 mph15.4 kmh 29.47 in998.0 mb 0.00 in0.0 mm 0.00 in0.0 mm 0.13 in3.3 mm
03:05 PM 47.1°F8.4°C 35.6°F2.0°C 62% 6.8 mph W10.9 kmh W 9.8 mph15.8 kmh 29.47 in998.0 mb 0.00 in0.0 mm 0.00 in0.0 mm 0.13 in3.3 mm
03:10 PM 46.8°F8.2°C 33.8°F1.0°C 61% 7.3 mph WNW11.7 kmh WNW 11.9 mph19.2 kmh 29.47 in998.0 mb 0.00 in0.0 mm 0.00 in0.0 mm 0.13 in3.3 mm
03:15 PM 46.6°F8.1°C 33.8°F1.0°C 62% 6.6 mph WNW10.6 kmh WNW 11.9 mph19.2 kmh 29.47 in998.0 mb 0.00 in0.0 mm 0.00 in0.0 mm 0.13 in3.3 mm
03:20 PM 46.2°F7.9°C 33.8°F1.0°C 62% 7.1 mph WNW11.4 kmh WNW 11.9 mph19.2 kmh 29.27 in991.2 mb 0.00 in0.0 mm 0.00 in0.0 mm 0.13 in3.3 mm
03:25 PM 46.0°F7.8°C 33.8°F1.0°C 62% 7.2 mph WNW11.6 kmh WNW 10.3 mph16.6 kmh 29.27 in991.2 mb 0.00 in0.0 mm 0.00 in0.0 mm 0.13 in3.3 mm
03:30 PM 46.0°F7.8°C 33.8°F1.0°C 62% 6.7 mph W10.8 kmh W 10.3 mph16.6 kmh 29.27 in991.2 mb 0.00 in0.0 mm 0.00 in0.0 mm 0.13 in3.3 mm
03:35 PM 45.7°F7.6°C 33.8°F1.0°C 62% 7.3 mph WNW11.7 kmh WNW 11.2 mph18.0 kmh 29.47 in998.0 mb 0.00 in0.0 mm 0.00 in0.0 mm 0.13 in3.3 mm
03:40 PM 45.1°F7.3°C 33.8°F1.0°C 62% 7.8 mph W12.6 kmh W 11.2 mph18.0 kmh 29.47 in998.0 mb 0.00 in0.0 mm 0.00 in0.0 mm 0.13 in3.3 mm
03:45 PM 45.0°F7.2°C 33.8°F1.0°C 62% 7.5 mph W12.1 kmh W 11.2 mph18.0 kmh 29.47 in998.0 mb 0.00 in0.0 mm 0.00 in0.0 mm 0.13 in3.3 mm
03:50 PM 44.8°F7.1°C 32.0°F0.0°C 62% 7.1 mph W11.4 kmh W 10.7 mph17.2 kmh 29.50 in999.0 mb 0.00 in0.0 mm 0.00 in0.0 mm 0.13 in3.3 mm
03:55 PM 44.6°F7.0°C 33.8°F1.0°C 63% 7.0 mph W11.3 kmh W 10.7 mph17.2 kmh 29.50 in999.0 mb 0.00 in0.0 mm 0.00 in0.0 mm 0.13 in3.3 mm
04:00 PM 44.4°F6.9°C 33.8°F1.0°C 63% 5.4 mph W8.7 kmh W 7.8 mph12.6 kmh 29.50 in999.0 mb 0.00 in0.0 mm 0.00 in0.0 mm 0.13 in3.3 mm
04:05 PM 44.2°F6.8°C 32.0°F0.0°C 63% 5.3 mph W8.5 kmh W 8.5 mph13.7 kmh 29.53 in1000.0 mb 0.00 in0.0 mm 0.00 in0.0 mm 0.13 in3.3 mm
04:10 PM 44.1°F6.7°C 32.0°F0.0°C 63% 6.5 mph W10.5 kmh W 9.2 mph14.8 kmh 29.53 in1000.0 mb 0.00 in0.0 mm 0.00 in0.0 mm 0.13 in3.3 mm
04:15 PM 43.9°F6.6°C 32.0°F0.0°C 63% 6.9 mph W11.1 kmh W 9.2 mph14.8 kmh 29.53 in1000.0 mb 0.00 in0.0 mm 0.00 in0.0 mm 0.13 in3.3 mm
04:20 PM 43.7°F6.5°C 32.0°F0.0°C 63% 6.5 mph W10.5 kmh W 8.5 mph13.7 kmh 29.53 in1000.0 mb 0.00 in0.0 mm 0.00 in0.0 mm 0.13 in3.3 mm
04:25 PM 43.5°F6.4°C 32.0°F0.0°C 64% 5.4 mph W8.7 kmh W 7.6 mph12.2 kmh 29.53 in1000.0 mb 0.00 in0.0 mm 0.00 in0.0 mm 0.13 in3.3 mm
04:30 PM 43.2°F6.2°C 32.0°F0.0°C 64% 5.0 mph W8.0 kmh W 7.4 mph11.9 kmh 29.53 in1000.0 mb 0.00 in0.0 mm 0.00 in0.0 mm 0.13 in3.3 mm
04:35 PM 43.0°F6.1°C 32.0°F0.0°C 64% 4.1 mph W6.6 kmh W 6.9 mph11.1 kmh 29.53 in1000.0 mb 0.00 in0.0 mm 0.00 in0.0 mm 0.13 in3.3 mm
04:40 PM 42.8°F6.0°C 32.0°F0.0°C 65% 4.1 mph W6.6 kmh W 6.3 mph10.1 kmh 29.53 in1000.0 mb 0.00 in0.0 mm 0.00 in0.0 mm 0.13 in3.3 mm
04:45 PM 42.4°F5.8°C 32.0°F0.0°C 65% 4.7 mph WNW7.6 kmh WNW 6.3 mph10.1 kmh 29.53 in1000.0 mb 0.00 in0.0 mm 0.00 in0.0 mm 0.13 in3.3 mm
04:50 PM 42.3°F5.7°C 32.0°F0.0°C 65% 4.3 mph WNW6.9 kmh WNW 6.3 mph10.1 kmh 29.53 in1000.0 mb 0.00 in0.0 mm 0.00 in0.0 mm 0.13 in3.3 mm
04:55 PM 41.9°F5.5°C 32.0°F0.0°C 66% 3.5 mph W5.6 kmh W 5.4 mph8.7 kmh 29.53 in1000.0 mb 0.00 in0.0 mm 0.00 in0.0 mm 0.13 in3.3 mm
05:00 PM 41.7°F5.4°C 32.0°F0.0°C 66% 3.1 mph WSW5.0 kmh WSW 5.4 mph8.7 kmh 29.53 in1000.0 mb 0.00 in0.0 mm 0.00 in0.0 mm 0.13 in3.3 mm
05:05 PM 41.5°F5.3°C 32.0°F0.0°C 66% 3.1 mph WSW5.0 kmh WSW 4.3 mph6.9 kmh 29.53 in1000.0 mb 0.00 in0.0 mm 0.00 in0.0 mm 0.13 in3.3 mm
05:10 PM 41.2°F5.1°C 32.0°F0.0°C 67% 3.1 mph WSW5.0 kmh WSW 3.8 mph6.1 kmh 29.53 in1000.0 mb 0.00 in0.0 mm 0.00 in0.0 mm 0.13 in3.3 mm
05:15 PM 41.0°F5.0°C 32.0°F0.0°C 67% 2.7 mph WSW4.3 kmh WSW 3.8 mph6.1 kmh 29.53 in1000.0 mb 0.00 in0.0 mm 0.00 in0.0 mm 0.13 in3.3 mm
05:20 PM 40.3°F4.6°C 30.2°F-1.0°C 67% 1.9 mph WSW3.1 kmh WSW 3.1 mph5.0 kmh 29.56 in1001.0 mb 0.00 in0.0 mm 0.00 in0.0 mm 0.13 in3.3 mm
05:25 PM 39.9°F4.4°C 30.2°F-1.0°C 67% 1.2 mph W1.9 kmh W 2.0 mph3.2 kmh 29.56 in1001.0 mb 0.00 in0.0 mm 0.00 in0.0 mm 0.13 in3.3 mm
05:30 PM 39.7°F4.3°C 30.2°F-1.0°C 68% 2.0 mph WSW3.2 kmh WSW 3.6 mph5.8 kmh 29.56 in1001.0 mb 0.00 in0.0 mm 0.00 in0.0 mm 0.13 in3.3 mm
05:35 PM 39.9°F4.4°C 30.2°F-1.0°C 68% 3.1 mph WSW5.0 kmh WSW 4.3 mph6.9 kmh 29.56 in1001.0 mb 0.00 in0.0 mm 0.00 in0.0 mm 0.13 in3.3 mm
05:40 PM 39.7°F4.3°C 30.2°F-1.0°C 68% 3.2 mph WSW5.1 kmh WSW 4.3 mph6.9 kmh 29.56 in1001.0 mb 0.00 in0.0 mm 0.00 in0.0 mm 0.13 in3.3 mm
05:45 PM 39.7°F4.3°C 30.2°F-1.0°C 68% 3.0 mph SW4.8 kmh SW 5.8 mph9.3 kmh 29.56 in1001.0 mb 0.00 in0.0 mm 0.00 in0.0 mm 0.13 in3.3 mm
05:50 PM 39.4°F4.1°C 30.2°F-1.0°C 69% 2.4 mph SW3.9 kmh SW 5.8 mph9.3 kmh 29.56 in1001.0 mb 0.00 in0.0 mm 0.00 in0.0 mm 0.13 in3.3 mm
05:55 PM 39.4°F4.1°C 30.2°F-1.0°C 69% 1.9 mph SW3.1 kmh SW 3.8 mph6.1 kmh 29.56 in1001.0 mb 0.00 in0.0 mm 0.00 in0.0 mm 0.13 in3.3 mm
06:00 PM 39.2°F4.0°C 30.2°F-1.0°C 69% 1.6 mph SW2.6 kmh SW 3.8 mph6.1 kmh 29.56 in1001.0 mb 0.00 in0.0 mm 0.00 in0.0 mm 0.13 in3.3 mm
06:05 PM 38.8°F3.8°C 30.2°F-1.0°C 69% 0.6 mph WSW1.0 kmh WSW 2.5 mph4.0 kmh 29.59 in1002.0 mb 0.00 in0.0 mm 0.00 in0.0 mm 0.13 in3.3 mm
06:10 PM 38.3°F3.5°C 30.2°F-1.0°C 69% 0.3 mph N0.5 kmh N 1.1 mph1.8 kmh 29.59 in1002.0 mb 0.00 in0.0 mm 0.00 in0.0 mm 0.13 in3.3 mm
06:15 PM 38.1°F3.4°C 30.2°F-1.0°C 70% 0.3 mph N0.5 kmh N 1.1 mph1.8 kmh 29.59 in1002.0 mb 0.00 in0.0 mm 0.00 in0.0 mm 0.13 in3.3 mm
06:20 PM 37.8°F3.2°C 30.2°F-1.0°C 70% 0.2 mph N0.3 kmh N 1.1 mph1.8 kmh 29.59 in1002.0 mb 0.00 in0.0 mm 0.00 in0.0 mm 0.13 in3.3 mm
06:25 PM 37.4°F3.0°C 28.4°F-2.0°C 70% 0.4 mph W0.6 kmh W 1.1 mph1.8 kmh 29.59 in1002.0 mb 0.00 in0.0 mm 0.00 in0.0 mm 0.13 in3.3 mm
06:30 PM 38.1°F3.4°C 30.2°F-1.0°C 71% 1.9 mph WSW3.1 kmh WSW 4.0 mph6.4 kmh 29.59 in1002.0 mb 0.00 in0.0 mm 0.00 in0.0 mm 0.13 in3.3 mm
06:35 PM 38.7°F3.7°C 30.2°F-1.0°C 70% 4.1 mph WSW6.6 kmh WSW 5.6 mph9.0 kmh 29.59 in1002.0 mb 0.00 in0.0 mm 0.00 in0.0 mm 0.13 in3.3 mm
06:40 PM 38.5°F3.6°C 30.2°F-1.0°C 70% 3.9 mph WSW6.3 kmh WSW 5.6 mph9.0 kmh 29.59 in1002.0 mb 0.00 in0.0 mm 0.00 in0.0 mm 0.13 in3.3 mm
06:45 PM 38.3°F3.5°C 30.2°F-1.0°C 70% 2.9 mph WSW4.7 kmh WSW 4.3 mph6.9 kmh 29.59 in1002.0 mb 0.00 in0.0 mm 0.00 in0.0 mm 0.13 in3.3 mm
06:50 PM 37.9°F3.3°C 30.2°F-1.0°C 70% 2.2 mph W3.5 kmh W 3.4 mph5.5 kmh 29.62 in1003.0 mb 0.00 in0.0 mm 0.00 in0.0 mm 0.13 in3.3 mm
06:55 PM 37.6°F3.1°C 30.2°F-1.0°C 71% 1.9 mph W3.1 kmh W 3.1 mph5.0 kmh 29.62 in1003.0 mb 0.00 in0.0 mm 0.00 in0.0 mm 0.13 in3.3 mm
07:00 PM 37.9°F3.3°C 30.2°F-1.0°C 71% 3.0 mph W4.8 kmh W 5.4 mph8.7 kmh 29.62 in1003.0 mb 0.00 in0.0 mm 0.00 in0.0 mm 0.13 in3.3 mm
07:05 PM 38.7°F3.7°C 30.2°F-1.0°C 71% 4.3 mph WSW6.9 kmh WSW 5.6 mph9.0 kmh 29.62 in1003.0 mb 0.00 in0.0 mm 0.00 in0.0 mm 0.13 in3.3 mm
07:10 PM 38.7°F3.7°C 30.2°F-1.0°C 71% 4.2 mph WSW6.8 kmh WSW 5.8 mph9.3 kmh 29.62 in1003.0 mb 0.00 in0.0 mm 0.00 in0.0 mm 0.13 in3.3 mm
07:15 PM 38.7°F3.7°C 30.2°F-1.0°C 72% 4.0 mph WSW6.4 kmh WSW 5.8 mph9.3 kmh 29.62 in1003.0 mb 0.00 in0.0 mm 0.00 in0.0 mm 0.13 in3.3 mm
07:20 PM 38.3°F3.5°C 30.2°F-1.0°C 72% 2.8 mph WSW4.5 kmh WSW 5.4 mph8.7 kmh 29.62 in1003.0 mb 0.00 in0.0 mm 0.00 in0.0 mm 0.13 in3.3 mm
07:25 PM 38.3°F3.5°C 30.2°F-1.0°C 72% 3.1 mph WSW5.0 kmh WSW 5.8 mph9.3 kmh 29.62 in1003.0 mb 0.00 in0.0 mm 0.00 in0.0 mm 0.13 in3.3 mm
07:30 PM 38.1°F3.4°C 30.2°F-1.0°C 73% 3.2 mph WSW5.1 kmh WSW 5.8 mph9.3 kmh 29.62 in1003.0 mb 0.00 in0.0 mm 0.00 in0.0 mm 0.13 in3.3 mm
07:35 PM 37.8°F3.2°C 30.2°F-1.0°C 73% 2.2 mph WSW3.5 kmh WSW 2.9 mph4.7 kmh 29.62 in1003.0 mb 0.00 in0.0 mm 0.00 in0.0 mm 0.13 in3.3 mm
07:40 PM 37.8°F3.2°C 30.2°F-1.0°C 73% 2.5 mph WSW4.0 kmh WSW 3.6 mph5.8 kmh 29.62 in1003.0 mb 0.00 in0.0 mm 0.00 in0.0 mm 0.13 in3.3 mm
07:45 PM 37.8°F3.2°C 30.2°F-1.0°C 73% 3.1 mph WSW5.0 kmh WSW 4.3 mph6.9 kmh 29.62 in1003.0 mb 0.00 in0.0 mm 0.00 in0.0 mm 0.13 in3.3 mm
07:50 PM 37.8°F3.2°C 30.2°F-1.0°C 73% 2.8 mph WSW4.5 kmh WSW 4.3 mph6.9 kmh 29.62 in1003.0 mb 0.00 in0.0 mm 0.00 in0.0 mm 0.13 in3.3 mm
07:55 PM 36.7°F2.6°C 30.2°F-1.0°C 73% 1.4 mph WSW2.3 kmh WSW 4.3 mph6.9 kmh 29.62 in1003.0 mb 0.00 in0.0 mm 0.00 in0.0 mm 0.13 in3.3 mm
08:00 PM 36.7°F2.6°C 30.2°F-1.0°C 74% 0.2 mph SSW0.3 kmh SSW 1.1 mph1.8 kmh 29.62 in1003.0 mb 0.00 in0.0 mm 0.00 in0.0 mm 0.13 in3.3 mm
08:05 PM 36.7°F2.6°C 30.2°F-1.0°C 74% 0.4 mph S0.6 kmh S 2.0 mph3.2 kmh 29.65 in1004.1 mb 0.00 in0.0 mm 0.00 in0.0 mm 0.13 in3.3 mm
08:10 PM 36.3°F2.4°C 30.2°F-1.0°C 74% 0.6 mph S1.0 kmh S 2.0 mph3.2 kmh 29.65 in1004.1 mb 0.00 in0.0 mm 0.00 in0.0 mm 0.13 in3.3 mm
08:15 PM 36.0°F2.2°C 28.4°F-2.0°C 74% 0.7 mph SSW1.1 kmh SSW 1.3 mph2.1 kmh 29.65 in1004.1 mb 0.00 in0.0 mm 0.00 in0.0 mm 0.13 in3.3 mm
08:20 PM 35.8°F2.1°C 28.4°F-2.0°C 74% 0.9 mph SW1.4 kmh SW 2.2 mph3.5 kmh 29.65 in1004.1 mb 0.00 in0.0 mm 0.00 in0.0 mm 0.13 in3.3 mm
08:25 PM 35.4°F1.9°C 28.4°F-2.0°C 75% 1.4 mph WSW2.3 kmh WSW 2.5 mph4.0 kmh 29.65 in1004.1 mb 0.00 in0.0 mm 0.00 in0.0 mm 0.13 in3.3 mm
08:30 PM 34.5°F1.4°C 26.6°F-3.0°C 74% 0.8 mph W1.3 kmh W 2.5 mph4.0 kmh 29.65 in1004.1 mb 0.00 in0.0 mm 0.00 in0.0 mm 0.13 in3.3 mm
08:35 PM 34.2°F1.2°C 26.6°F-3.0°C 74% Calm Calm -- 29.65 in1004.1 mb 0.00 in0.0 mm 0.00 in0.0 mm 0.13 in3.3 mm
08:40 PM 33.8°F1.0°C 26.6°F-3.0°C 74% Calm Calm -- 29.65 in1004.1 mb 0.00 in0.0 mm 0.00 in0.0 mm 0.13 in3.3 mm
08:45 PM 33.4°F0.8°C 26.6°F-3.0°C 74% 0.3 mph WNW0.5 kmh WNW 2.9 mph4.7 kmh 29.65 in1004.1 mb 0.00 in0.0 mm 0.00 in0.0 mm 0.13 in3.3 mm
08:50 PM 33.4°F0.8°C 26.6°F-3.0°C 75% 0.6 mph W1.0 kmh W 2.9 mph4.7 kmh 29.65 in1004.1 mb 0.00 in0.0 mm 0.00 in0.0 mm 0.13 in3.3 mm
08:55 PM 33.4°F0.8°C 26.6°F-3.0°C 75% 0.4 mph NNW0.6 kmh NNW 2.9 mph4.7 kmh 29.65 in1004.1 mb 0.00 in0.0 mm 0.00 in0.0 mm 0.13 in3.3 mm
09:00 PM 33.1°F0.6°C 26.6°F-3.0°C 75% 0.2 mph NNE0.3 kmh NNE 1.3 mph2.1 kmh 29.65 in1004.1 mb 0.00 in0.0 mm 0.00 in0.0 mm 0.13 in3.3 mm
09:05 PM 33.3°F0.7°C 26.6°F-3.0°C 76% Calm Calm -- 29.65 in1004.1 mb 0.00 in0.0 mm 0.00 in0.0 mm 0.13 in3.3 mm
09:10 PM 33.4°F0.8°C 26.6°F-3.0°C 76% 0.1 mph SSW0.2 kmh SSW 0.9 mph1.4 kmh 29.65 in1004.1 mb 0.00 in0.0 mm 0.00 in0.0 mm 0.13 in3.3 mm
09:15 PM 33.4°F0.8°C 26.6°F-3.0°C 76% 0.1 mph SSW0.2 kmh SSW 0.9 mph1.4 kmh 29.65 in1004.1 mb 0.00 in0.0 mm 0.00 in0.0 mm 0.13 in3.3 mm
09:20 PM 33.1°F0.6°C 26.6°F-3.0°C 76% Calm Calm -- 29.65 in1004.1 mb 0.00 in0.0 mm 0.00 in0.0 mm 0.13 in3.3 mm
09:25 PM 32.9°F0.5°C 26.6°F-3.0°C 76% Calm Calm 0.9 mph1.4 kmh 29.65 in1004.1 mb 0.00 in0.0 mm 0.00 in0.0 mm 0.13 in3.3 mm
09:30 PM 32.9°F0.5°C 26.6°F-3.0°C 77% 0.5 mph WNW0.8 kmh WNW 2.5 mph4.0 kmh 29.65 in1004.1 mb 0.00 in0.0 mm 0.00 in0.0 mm 0.13 in3.3 mm
09:35 PM 33.3°F0.7°C 26.6°F-3.0°C 77% 1.2 mph NW1.9 kmh NW 2.7 mph4.3 kmh 29.65 in1004.1 mb 0.00 in0.0 mm 0.00 in0.0 mm 0.13 in3.3 mm
09:40 PM 33.3°F0.7°C 26.6°F-3.0°C 77% 0.9 mph NW1.4 kmh NW 2.7 mph4.3 kmh 29.65 in1004.1 mb 0.00 in0.0 mm 0.00 in0.0 mm 0.13 in3.3 mm
09:45 PM 33.1°F0.6°C 26.6°F-3.0°C 77% 0.6 mph WSW1.0 kmh WSW 1.6 mph2.6 kmh 29.65 in1004.1 mb 0.00 in0.0 mm 0.00 in0.0 mm 0.13 in3.3 mm
09:50 PM 33.8°F1.0°C 28.4°F-2.0°C 77% 1.5 mph WSW2.4 kmh WSW 2.9 mph4.7 kmh 29.68 in1005.1 mb 0.00 in0.0 mm 0.00 in0.0 mm 0.13 in3.3 mm
09:55 PM 34.0°F1.1°C 28.4°F-2.0°C 78% 1.7 mph WSW2.7 kmh WSW 2.9 mph4.7 kmh 29.68 in1005.1 mb 0.00 in0.0 mm 0.00 in0.0 mm 0.13 in3.3 mm
10:00 PM 34.0°F1.1°C 28.4°F-2.0°C 78% 1.3 mph SW2.1 kmh SW 2.2 mph3.5 kmh 29.68 in1005.1 mb 0.00 in0.0 mm 0.00 in0.0 mm 0.13 in3.3 mm
10:05 PM 33.6°F0.9°C 28.4°F-2.0°C 78% 0.7 mph SW1.1 kmh SW 2.2 mph3.5 kmh 29.65 in1004.1 mb 0.00 in0.0 mm 0.00 in0.0 mm 0.13 in3.3 mm
10:10 PM 32.9°F0.5°C 26.6°F-3.0°C 77% 0.2 mph SSW0.3 kmh SSW 1.1 mph1.8 kmh 29.65 in1004.1 mb 0.00 in0.0 mm 0.00 in0.0 mm 0.13 in3.3 mm
10:15 PM 32.5°F0.3°C 26.6°F-3.0°C 77% 0.1 mph SSW0.2 kmh SSW 1.1 mph1.8 kmh 29.65 in1004.1 mb 0.00 in0.0 mm 0.00 in0.0 mm 0.13 in3.3 mm
10:20 PM 32.0°F0.0°C 24.8°F-4.0°C 77% Calm Calm -- 29.68 in1005.1 mb 0.00 in0.0 mm 0.00 in0.0 mm 0.13 in3.3 mm
10:25 PM 32.0°F0.0°C 24.8°F-4.0°C 77% 0.1 mph S0.2 kmh S 1.1 mph1.8 kmh 29.68 in1005.1 mb 0.00 in0.0 mm 0.00 in0.0 mm 0.13 in3.3 mm
10:30 PM 31.8°F-0.1°C 24.8°F-4.0°C 77% 0.3 mph S0.5 kmh S 1.1 mph1.8 kmh 29.68 in1005.1 mb 0.00 in0.0 mm 0.00 in0.0 mm 0.13 in3.3 mm
10:35 PM 32.0°F0.0°C 24.8°F-4.0°C 77% 0.3 mph S0.5 kmh S 0.9 mph1.4 kmh 29.68 in1005.1 mb 0.00 in0.0 mm 0.00 in0.0 mm 0.13 in3.3 mm
10:40 PM 32.0°F0.0°C 24.8°F-4.0°C 78% 0.1 mph S0.2 kmh S 0.9 mph1.4 kmh 29.68 in1005.1 mb 0.00 in0.0 mm 0.00 in0.0 mm 0.13 in3.3 mm
10:45 PM 31.8°F-0.1°C 24.8°F-4.0°C 78% Calm Calm -- 29.68 in1005.1 mb 0.00 in0.0 mm 0.00 in0.0 mm 0.13 in3.3 mm
10:50 PM 31.3°F-0.4°C 23.0°F-5.0°C 78% Calm Calm -- 29.68 in1005.1 mb 0.00 in0.0 mm 0.00 in0.0 mm 0.13 in3.3 mm
10:55 PM 30.9°F-0.6°C 23.0°F-5.0°C 77% Calm Calm -- 29.68 in1005.1 mb 0.00 in0.0 mm 0.00 in0.0 mm 0.13 in3.3 mm
11:00 PM 30.7°F-0.7°C 23.0°F-5.0°C 77% 0.6 mph NE1.0 kmh NE 2.5 mph4.0 kmh 29.68 in1005.1 mb 0.00 in0.0 mm 0.00 in0.0 mm 0.13 in3.3 mm
11:05 PM 30.6°F-0.8°C 23.0°F-5.0°C 77% 1.1 mph NE1.8 kmh NE 2.5 mph4.0 kmh 29.68 in1005.1 mb 0.00 in0.0 mm 0.00 in0.0 mm 0.13 in3.3 mm
11:10 PM 30.6°F-0.8°C 23.0°F-5.0°C 77% 1.1 mph NE1.8 kmh NE 1.3 mph2.1 kmh 29.68 in1005.1 mb 0.00 in0.0 mm 0.00 in0.0 mm 0.13 in3.3 mm
11:15 PM 30.4°F-0.9°C 23.0°F-5.0°C 77% 1.1 mph NE1.8 kmh NE 1.3 mph2.1 kmh 29.68 in1005.1 mb 0.00 in0.0 mm 0.00 in0.0 mm 0.13 in3.3 mm
11:20 PM 30.2°F-1.0°C 23.0°F-5.0°C 77% 1.3 mph NE2.1 kmh NE 2.0 mph3.2 kmh 29.45 in997.3 mb 0.00 in0.0 mm 0.00 in0.0 mm 0.13 in3.3 mm
11:25 PM 30.2°F-1.0°C 23.0°F-5.0°C 78% 1.5 mph ENE2.4 kmh ENE 2.5 mph4.0 kmh 29.45 in997.3 mb 0.00 in0.0 mm 0.00 in0.0 mm 0.13 in3.3 mm
11:30 PM 30.0°F-1.1°C 23.0°F-5.0°C 78% 0.8 mph ENE1.3 kmh ENE 2.5 mph4.0 kmh 29.45 in997.3 mb 0.00 in0.0 mm 0.00 in0.0 mm 0.13 in3.3 mm
11:35 PM 29.8°F-1.2°C 23.0°F-5.0°C 78% 0.1 mph NE0.2 kmh NE 0.9 mph1.4 kmh 29.68 in1005.1 mb 0.00 in0.0 mm 0.00 in0.0 mm 0.13 in3.3 mm
11:40 PM 29.8°F-1.2°C 23.0°F-5.0°C 78% 0.3 mph NE0.5 kmh NE 1.1 mph1.8 kmh 29.68 in1005.1 mb 0.00 in0.0 mm 0.00 in0.0 mm 0.13 in3.3 mm
11:45 PM 29.7°F-1.3°C 23.0°F-5.0°C 78% 0.7 mph NE1.1 kmh NE 1.1 mph1.8 kmh 29.68 in1005.1 mb 0.00 in0.0 mm 0.00 in0.0 mm 0.13 in3.3 mm
11:50 PM 29.7°F-1.3°C 23.0°F-5.0°C 78% 0.6 mph NE1.0 kmh NE 1.1 mph1.8 kmh 29.65 in1004.1 mb 0.00 in0.0 mm 0.00 in0.0 mm 0.13 in3.3 mm
11:55 PM 29.5°F-1.4°C 23.0°F-5.0°C 78% 1.0 mph NE1.6 kmh NE 2.0 mph3.2 kmh 29.65 in1004.1 mb 0.00 in0.0 mm 0.00 in0.0 mm 0.13 in3.3 mm